createdAt,value
2022-10-23T00:00:08.469Z,11.00
2022-10-23T00:02:35.180Z,11.00
2022-10-23T00:05:01.815Z,10.90
2022-10-23T00:07:28.388Z,10.90
2022-10-23T00:09:54.991Z,10.90
2022-10-23T00:12:21.580Z,10.80
2022-10-23T00:14:48.175Z,10.80
2022-10-23T00:17:14.758Z,10.80
2022-10-23T00:19:41.346Z,10.70
2022-10-23T00:22:07.938Z,10.70
2022-10-23T00:24:34.544Z,10.70
2022-10-23T00:27:01.139Z,10.70
2022-10-23T00:29:27.732Z,10.70
2022-10-23T00:31:54.333Z,10.70
2022-10-23T00:34:20.910Z,10.70
2022-10-23T00:36:47.515Z,10.60
2022-10-23T00:39:14.111Z,10.60
2022-10-23T00:41:40.757Z,10.60
2022-10-23T00:44:08.859Z,10.60
2022-10-23T00:46:37.344Z,10.50
2022-10-23T00:49:05.278Z,10.50
2022-10-23T00:51:38.484Z,10.50
2022-10-23T00:56:55.982Z,10.50
2022-10-23T00:59:23.205Z,10.50
2022-10-23T01:01:49.902Z,10.50
2022-10-23T01:04:16.846Z,10.40
2022-10-23T01:07:14.479Z,10.40
2022-10-23T01:10:03.256Z,10.40
2022-10-23T01:12:44.295Z,10.40
2022-10-23T01:15:48.967Z,10.30
2022-10-23T01:18:36.065Z,10.30
2022-10-23T01:21:06.238Z,10.30
2022-10-23T01:24:12.059Z,10.30
2022-10-23T01:27:14.485Z,10.20
2022-10-23T01:29:50.858Z,10.20
2022-10-23T01:32:29.198Z,10.10
2022-10-23T01:35:14.346Z,10.10
2022-10-23T01:37:45.065Z,10.00
2022-10-23T01:40:26.077Z,10.00
2022-10-23T01:42:56.993Z,10.00
2022-10-23T01:45:45.690Z,10.00
2022-10-23T01:48:16.434Z,10.00
2022-10-23T01:50:44.406Z,10.00
2022-10-23T01:53:11.264Z,10.00
2022-10-23T01:55:39.949Z,10.00
2022-10-23T01:58:07.374Z,10.00
2022-10-23T02:00:36.259Z,10.00
2022-10-23T02:03:03.150Z,10.00
2022-10-23T02:05:30.825Z,10.10
2022-10-23T02:07:58.381Z,10.10
2022-10-23T02:10:45.623Z,10.10
2022-10-23T02:13:42.538Z,10.00
2022-10-23T02:16:42.473Z,10.00
2022-10-23T02:19:45.762Z,10.00
2022-10-23T02:22:29.602Z,10.00
2022-10-23T02:25:11.288Z,10.00
2022-10-23T02:27:42.693Z,10.00
2022-10-23T02:30:12.207Z,10.00
2022-10-23T02:32:44.617Z,10.00
2022-10-23T02:35:11.716Z,9.90
2022-10-23T02:37:38.415Z,9.90
2022-10-23T02:40:05.923Z,9.90
2022-10-23T02:42:39.720Z,9.80
2022-10-23T02:45:14.971Z,9.80
2022-10-23T02:47:44.608Z,9.80
2022-10-23T02:50:30.184Z,9.90
2022-10-23T02:53:11.392Z,9.80
2022-10-23T02:55:51.308Z,9.90
2022-10-23T02:58:30.395Z,9.90
2022-10-23T03:01:19.295Z,9.80
2022-10-23T03:03:51.498Z,9.80
2022-10-23T03:06:18.393Z,9.80
2022-10-23T03:08:59.053Z,9.80
2022-10-23T03:11:26.364Z,9.70
2022-10-23T03:13:52.969Z,9.80
2022-10-23T03:16:19.692Z,9.80
2022-10-23T03:18:46.293Z,9.80
2022-10-23T03:21:12.933Z,9.70
2022-10-23T03:23:39.513Z,9.70
2022-10-23T03:26:06.227Z,9.70
2022-10-23T03:28:32.853Z,9.70
2022-10-23T03:30:59.439Z,9.60
2022-10-23T03:33:26.009Z,9.70
2022-10-23T03:35:52.588Z,9.60
2022-10-23T03:38:20.200Z,9.60
2022-10-23T03:40:46.803Z,9.60
2022-10-23T03:43:13.603Z,9.60
2022-10-23T03:45:40.434Z,9.60
2022-10-23T03:48:07.706Z,9.50
2022-10-23T03:50:35.723Z,9.50
2022-10-23T03:53:02.354Z,9.50
2022-10-23T03:55:29.450Z,9.50
2022-10-23T03:57:56.049Z,9.50
2022-10-23T04:00:22.905Z,9.50
2022-10-23T04:02:49.523Z,9.60
2022-10-23T04:05:16.252Z,9.50
2022-10-23T04:07:42.913Z,9.50
2022-10-23T04:10:09.945Z,9.50
2022-10-23T04:12:36.546Z,9.50
2022-10-23T04:15:03.636Z,9.40
2022-10-23T04:17:30.230Z,9.30
2022-10-23T04:19:56.819Z,9.30
2022-10-23T04:22:25.960Z,9.30
2022-10-23T04:24:54.195Z,9.30
2022-10-23T04:27:20.778Z,9.40
2022-10-23T04:29:47.349Z,9.40
2022-10-23T04:32:13.987Z,9.40
2022-10-23T04:34:40.563Z,9.40
2022-10-23T04:37:07.168Z,9.40
2022-10-23T04:39:33.746Z,9.50
2022-10-23T04:42:00.386Z,9.50
2022-10-23T04:44:26.957Z,9.40
2022-10-23T04:46:53.545Z,9.50
2022-10-23T04:49:20.123Z,9.50
2022-10-23T04:51:46.732Z,9.50
2022-10-23T04:54:13.316Z,9.50
2022-10-23T04:56:39.904Z,9.50
2022-10-23T04:59:06.527Z,9.60
2022-10-23T05:01:33.264Z,9.70
2022-10-23T05:03:59.969Z,9.70
2022-10-23T05:06:26.640Z,9.70
2022-10-23T05:08:53.271Z,9.70
2022-10-23T05:11:19.861Z,9.70
2022-10-23T05:13:46.576Z,9.70
2022-10-23T05:16:46.804Z,9.70
2022-10-23T05:19:23.417Z,9.70
2022-10-23T05:21:52.140Z,9.70
2022-10-23T05:24:18.731Z,9.70
2022-10-23T05:26:45.472Z,9.70
2022-10-23T05:29:12.075Z,9.60
2022-10-23T05:31:39.215Z,9.60
2022-10-23T05:34:08.773Z,9.60
2022-10-23T05:36:39.138Z,9.50
2022-10-23T05:39:05.744Z,9.50
2022-10-23T05:41:32.339Z,9.50
2022-10-23T05:43:58.927Z,9.40
2022-10-23T05:46:25.555Z,9.40
2022-10-23T05:48:52.634Z,9.40
2022-10-23T05:51:20.434Z,9.40
2022-10-23T05:53:47.055Z,9.40
2022-10-23T05:56:13.636Z,9.40
2022-10-23T05:58:40.268Z,9.40
2022-10-23T06:01:12.150Z,9.30
2022-10-23T06:03:39.714Z,9.30
2022-10-23T06:06:09.319Z,9.30
2022-10-23T06:08:35.950Z,9.30
2022-10-23T06:11:10.490Z,9.40
2022-10-23T06:13:37.044Z,9.40
2022-10-23T06:16:20.405Z,9.50
2022-10-23T06:18:47.796Z,9.50
2022-10-23T06:21:15.638Z,9.50
2022-10-23T06:23:43.877Z,9.50
2022-10-23T06:26:13.855Z,9.50
2022-10-23T06:28:40.801Z,9.50
2022-10-23T06:31:12.643Z,9.50
2022-10-23T06:33:39.690Z,9.50
2022-10-23T06:36:06.879Z,9.60
2022-10-23T06:38:33.481Z,9.60
2022-10-23T06:41:00.091Z,9.60
2022-10-23T06:43:26.687Z,9.70
2022-10-23T06:45:53.284Z,9.80
2022-10-23T06:48:19.896Z,9.80
2022-10-23T06:50:46.487Z,9.90
2022-10-23T06:53:13.113Z,9.90
2022-10-23T06:55:39.725Z,9.90
2022-10-23T06:58:07.782Z,10.00
2022-10-23T07:00:34.406Z,10.10
2022-10-23T07:03:01.019Z,10.30
2022-10-23T07:05:27.643Z,10.40
2022-10-23T07:07:54.251Z,10.60
2022-10-23T07:10:21.952Z,10.80
2022-10-23T07:12:48.534Z,10.80
2022-10-23T07:15:16.099Z,10.80
2022-10-23T07:17:42.687Z,11.10
2022-10-23T07:20:09.515Z,11.10
2022-10-23T07:22:36.091Z,11.30
2022-10-23T07:25:02.728Z,11.40
2022-10-23T07:27:29.331Z,11.40
2022-10-23T07:29:56.022Z,11.40
2022-10-23T07:32:22.634Z,11.30
2022-10-23T07:34:49.224Z,11.30
2022-10-23T07:37:15.816Z,11.50
2022-10-23T07:39:42.419Z,11.70
2022-10-23T07:42:09.937Z,11.90
2022-10-23T07:44:36.530Z,12.10
2022-10-23T07:47:03.164Z,12.20
2022-10-23T07:49:29.773Z,12.20
2022-10-23T07:51:56.421Z,12.30
2022-10-23T07:54:23.007Z,12.20
2022-10-23T07:56:49.676Z,12.30
2022-10-23T07:59:16.398Z,12.40
2022-10-23T08:01:43.560Z,12.50
2022-10-23T08:04:10.738Z,12.60
2022-10-23T08:06:37.385Z,12.60
2022-10-23T08:09:06.515Z,12.70
2022-10-23T08:11:34.282Z,12.70
2022-10-23T08:14:01.928Z,12.90
2022-10-23T08:16:28.516Z,12.90
2022-10-23T08:18:55.116Z,12.90
2022-10-23T08:21:21.737Z,12.80
2022-10-23T08:23:48.554Z,12.90
2022-10-23T08:26:15.628Z,13.00
2022-10-23T08:28:42.213Z,12.90
2022-10-23T08:31:14.601Z,12.90
2022-10-23T08:33:41.964Z,12.90
2022-10-23T08:36:22.098Z,13.20
2022-10-23T08:38:49.546Z,13.30
2022-10-23T08:41:26.165Z,13.40
2022-10-23T08:44:07.100Z,13.40
2022-10-23T08:46:40.285Z,13.50
2022-10-23T08:49:20.377Z,13.40
2022-10-23T08:51:52.660Z,13.30
2022-10-23T08:54:49.512Z,13.20
2022-10-23T08:57:18.256Z,13.30
2022-10-23T08:59:52.564Z,13.40
2022-10-23T09:02:24.602Z,13.40
2022-10-23T09:04:53.416Z,13.50
2022-10-23T09:07:42.848Z,13.40
2022-10-23T09:10:34.337Z,13.70
2022-10-23T09:13:21.629Z,13.70
2022-10-23T09:16:20.807Z,13.80
2022-10-23T09:18:49.495Z,14.00
2022-10-23T09:21:16.225Z,14.20
2022-10-23T09:23:42.844Z,14.10
2022-10-23T09:26:17.612Z,14.10
2022-10-23T09:28:50.539Z,14.30
2022-10-23T09:31:18.531Z,14.10
2022-10-23T09:33:59.701Z,14.10
2022-10-23T09:36:28.092Z,14.20
2022-10-23T09:38:57.194Z,14.40
2022-10-23T09:41:40.350Z,14.60
2022-10-23T09:44:25.671Z,14.70
2022-10-23T09:47:10.958Z,15.00
2022-10-23T09:49:46.104Z,15.10
2022-10-23T09:52:12.728Z,15.20
2022-10-23T09:54:46.293Z,15.40
2022-10-23T09:57:22.349Z,15.40
2022-10-23T09:59:54.769Z,15.60
2022-10-23T10:02:30.696Z,15.80
2022-10-23T10:04:58.237Z,15.90
2022-10-23T10:07:28.142Z,16.20
2022-10-23T10:09:57.919Z,16.30
2022-10-23T10:13:02.570Z,16.60
2022-10-23T10:15:41.460Z,16.70
2022-10-23T10:18:19.828Z,16.90
2022-10-23T10:20:49.367Z,17.10
2022-10-23T10:23:31.306Z,17.20
2022-10-23T10:26:07.035Z,17.40
2022-10-23T10:29:06.408Z,17.50
2022-10-23T10:31:49.341Z,17.70
2022-10-23T10:34:52.004Z,17.80
2022-10-23T10:37:30.731Z,18.00
2022-10-23T10:40:21.978Z,18.20
2022-10-23T10:43:00.767Z,18.30
2022-10-23T10:45:27.320Z,18.40
2022-10-23T10:48:12.303Z,18.40
2022-10-23T10:50:47.501Z,18.50
2022-10-23T10:53:38.299Z,18.60
2022-10-23T10:58:53.412Z,18.80
2022-10-23T11:01:29.175Z,18.80
2022-10-23T11:04:39.949Z,18.80
2022-10-23T11:07:15.041Z,18.90
2022-10-23T11:09:42.972Z,19.00
2022-10-23T11:12:23.243Z,19.10
2022-10-23T11:14:50.664Z,18.90
2022-10-23T11:17:39.934Z,19.00
2022-10-23T11:20:41.542Z,18.90
2022-10-23T11:23:35.715Z,18.80
2022-10-23T11:26:41.558Z,18.80
2022-10-23T11:29:32.292Z,19.00
2022-10-23T11:35:45.050Z,19.10
2022-10-23T11:38:31.925Z,19.10
2022-10-23T11:41:16.278Z,19.00
2022-10-23T11:44:00.838Z,19.10
2022-10-23T11:46:34.971Z,19.00
2022-10-23T11:49:02.490Z,19.00
2022-10-23T11:51:37.510Z,19.00
2022-10-23T11:54:10.229Z,19.00
2022-10-23T11:57:23.537Z,19.00
2022-10-23T11:59:50.114Z,19.00
2022-10-23T12:02:34.229Z,19.20
2022-10-23T12:05:06.010Z,19.20
2022-10-23T12:07:41.300Z,19.20
2022-10-23T12:10:26.824Z,19.20
2022-10-23T12:12:59.698Z,19.40
2022-10-23T12:15:27.943Z,19.40
2022-10-23T12:18:13.195Z,19.30
2022-10-23T12:20:51.333Z,19.20
2022-10-23T12:23:48.071Z,19.00
2022-10-23T12:26:34.453Z,19.00
2022-10-23T12:29:19.706Z,18.90
2022-10-23T12:32:07.454Z,18.90
2022-10-23T12:35:12.291Z,18.90
2022-10-23T12:38:04.954Z,18.80
2022-10-23T12:40:31.543Z,18.90
2022-10-23T12:43:00.073Z,18.90
2022-10-23T12:45:39.975Z,19.00
2022-10-23T12:48:06.631Z,18.90
2022-10-23T12:50:34.250Z,18.80
2022-10-23T12:53:03.780Z,19.00
2022-10-23T12:55:46.897Z,19.10
2022-10-23T12:58:28.708Z,19.10
2022-10-23T13:00:59.775Z,19.10
2022-10-23T13:03:28.867Z,19.00
2022-10-23T13:05:57.862Z,19.10
2022-10-23T13:08:32.037Z,19.10
2022-10-23T13:10:58.975Z,19.00
2022-10-23T13:13:25.917Z,19.10
2022-10-23T13:15:52.671Z,19.00
2022-10-23T13:18:19.312Z,19.10
2022-10-23T13:20:51.835Z,19.10
2022-10-23T13:23:31.998Z,19.10
2022-10-23T13:26:20.356Z,19.20
2022-10-23T13:28:47.350Z,19.10
2022-10-23T13:31:13.883Z,19.10
2022-10-23T13:34:06.940Z,19.00
2022-10-23T13:36:37.405Z,19.10
2022-10-23T13:39:13.704Z,19.10
2022-10-23T13:41:43.023Z,19.10
2022-10-23T13:44:15.017Z,19.00
2022-10-23T13:46:42.512Z,18.90
2022-10-23T13:49:09.328Z,19.00
2022-10-23T13:51:42.601Z,19.10
2022-10-23T13:54:21.818Z,19.00
2022-10-23T13:56:48.935Z,18.90
2022-10-23T13:59:15.722Z,18.80
2022-10-23T14:01:43.694Z,18.80
2022-10-23T14:04:11.073Z,18.80
2022-10-23T14:06:38.486Z,18.80
2022-10-23T14:09:07.003Z,18.80
2022-10-23T14:11:33.951Z,18.80
2022-10-23T14:14:00.694Z,18.80
2022-10-23T14:16:28.990Z,18.80
2022-10-23T14:18:55.967Z,18.80
2022-10-23T14:21:23.807Z,18.90
2022-10-23T14:23:51.954Z,18.90
2022-10-23T14:26:21.543Z,18.80
2022-10-23T14:28:48.363Z,18.80
2022-10-23T14:31:16.923Z,18.70
2022-10-23T14:33:44.987Z,18.60
2022-10-23T14:36:11.991Z,18.50
2022-10-23T14:38:39.037Z,18.50
2022-10-23T14:41:16.017Z,18.40
2022-10-23T14:43:42.782Z,18.30
2022-10-23T14:46:11.459Z,18.30
2022-10-23T14:48:38.093Z,18.30
2022-10-23T14:51:08.056Z,18.20
2022-10-23T14:53:34.735Z,18.20
2022-10-23T14:56:03.200Z,18.10
2022-10-23T14:58:30.085Z,18.10
2022-10-23T15:01:00.232Z,18.00
2022-10-23T15:03:28.311Z,18.00
2022-10-23T15:05:55.236Z,18.00
2022-10-23T15:08:22.756Z,17.90
2022-10-23T15:10:50.060Z,17.90
2022-10-23T15:13:16.686Z,17.90
2022-10-23T15:15:43.515Z,17.90
2022-10-23T15:18:10.182Z,17.80
2022-10-23T15:20:36.865Z,17.80
2022-10-23T15:23:03.738Z,17.70
2022-10-23T15:25:30.347Z,17.60
2022-10-23T15:27:56.993Z,17.60
2022-10-23T15:30:23.585Z,17.60
2022-10-23T15:32:50.168Z,17.60
2022-10-23T15:35:16.891Z,17.50
2022-10-23T15:37:43.821Z,17.50
2022-10-23T15:40:10.988Z,17.50
2022-10-23T15:42:37.628Z,17.40
2022-10-23T15:45:04.522Z,17.40
2022-10-23T15:47:31.089Z,17.30
2022-10-23T15:49:57.691Z,17.30
2022-10-23T15:52:24.323Z,17.20
2022-10-23T15:54:50.905Z,17.20
2022-10-23T15:57:17.519Z,17.20
2022-10-23T15:59:44.147Z,17.10
2022-10-23T16:02:14.321Z,17.00
2022-10-23T16:04:41.011Z,16.90
2022-10-23T16:07:07.611Z,16.90
2022-10-23T16:09:34.301Z,16.80
2022-10-23T16:12:00.925Z,16.80
2022-10-23T16:14:27.507Z,16.70
2022-10-23T16:16:54.108Z,16.70
2022-10-23T16:19:20.718Z,16.60
2022-10-23T16:21:47.332Z,16.60
2022-10-23T16:24:13.948Z,16.60
2022-10-23T16:26:40.541Z,16.50
2022-10-23T16:29:09.263Z,16.40
2022-10-23T16:31:36.346Z,16.40
2022-10-23T16:34:04.542Z,16.30
2022-10-23T16:36:31.206Z,16.30
2022-10-23T16:38:58.025Z,16.20
2022-10-23T16:41:24.687Z,16.20
2022-10-23T16:43:51.254Z,16.10
2022-10-23T16:46:20.529Z,16.00
2022-10-23T16:48:48.180Z,15.90
2022-10-23T16:51:20.365Z,15.80
2022-10-23T16:53:47.605Z,15.90
2022-10-23T16:56:16.116Z,15.90
2022-10-23T16:58:43.372Z,15.90
2022-10-23T17:01:14.117Z,15.80
2022-10-23T17:03:44.110Z,15.70
2022-10-23T17:06:13.815Z,15.70
2022-10-23T17:08:41.131Z,15.60
2022-10-23T17:11:08.933Z,15.60
2022-10-23T17:13:37.130Z,15.60
2022-10-23T17:16:34.598Z,15.60
2022-10-23T17:19:01.834Z,15.50
2022-10-23T17:21:35.485Z,15.50
2022-10-23T17:24:03.330Z,15.50
2022-10-23T17:26:30.163Z,15.50
2022-10-23T17:28:58.011Z,15.50
2022-10-23T17:31:31.217Z,15.50
2022-10-23T17:34:00.036Z,15.60
2022-10-23T17:36:27.401Z,15.50
2022-10-23T17:38:54.207Z,15.50
2022-10-23T17:41:22.715Z,15.70
2022-10-23T17:43:49.867Z,15.80
2022-10-23T17:46:18.158Z,15.60
2022-10-23T17:48:44.836Z,15.60
2022-10-23T17:51:13.904Z,15.60
2022-10-23T17:53:43.297Z,15.50
2022-10-23T17:56:12.288Z,15.50
2022-10-23T17:58:39.378Z,15.40
2022-10-23T18:01:06.169Z,15.40
2022-10-23T18:03:34.331Z,15.40
2022-10-23T18:06:24.503Z,15.30
2022-10-23T18:08:54.655Z,15.40
2022-10-23T18:11:25.631Z,15.40
2022-10-23T18:13:53.354Z,15.30
2022-10-23T18:16:20.819Z,15.20
2022-10-23T18:18:48.531Z,15.20
2022-10-23T18:21:16.360Z,15.10
2022-10-23T18:23:43.408Z,15.10
2022-10-23T18:26:15.926Z,15.10
2022-10-23T18:28:44.390Z,15.10
2022-10-23T18:31:12.237Z,15.00
2022-10-23T18:33:39.370Z,15.00
2022-10-23T18:36:21.477Z,15.00
2022-10-23T18:38:48.910Z,15.00
2022-10-23T18:41:16.098Z,15.00
2022-10-23T18:43:44.359Z,14.90
2022-10-23T18:46:13.494Z,14.80
2022-10-23T18:48:40.535Z,14.80
2022-10-23T18:51:19.721Z,14.80
2022-10-23T18:53:46.746Z,14.70
2022-10-23T18:56:18.400Z,14.70
2022-10-23T18:58:45.009Z,14.70
2022-10-23T19:01:11.679Z,14.60
2022-10-23T19:03:39.379Z,14.60
2022-10-23T19:06:07.771Z,14.70
2022-10-23T19:08:38.949Z,14.80
2022-10-23T19:11:06.500Z,14.80
2022-10-23T19:13:36.575Z,14.80
2022-10-23T19:16:08.842Z,14.80
2022-10-23T19:18:37.298Z,14.70
2022-10-23T19:21:05.198Z,14.70
2022-10-23T19:23:33.084Z,14.70
2022-10-23T19:25:59.691Z,14.70
2022-10-23T19:28:26.337Z,14.70
2022-10-23T19:30:52.984Z,14.60
2022-10-23T19:33:19.567Z,14.60
2022-10-23T19:35:46.144Z,14.60
2022-10-23T19:38:12.739Z,14.60
2022-10-23T19:40:39.312Z,14.70
2022-10-23T19:43:05.895Z,14.60
2022-10-23T19:45:32.497Z,14.60
2022-10-23T19:47:59.099Z,14.60
2022-10-23T19:50:25.718Z,14.60
2022-10-23T19:52:52.304Z,14.60
2022-10-23T19:55:18.957Z,14.60
2022-10-23T19:57:45.796Z,14.60
2022-10-23T20:00:13.240Z,14.60
2022-10-23T20:02:39.815Z,14.60
2022-10-23T20:05:07.707Z,14.60
2022-10-23T20:07:34.562Z,14.60
2022-10-23T20:10:01.377Z,14.60
2022-10-23T20:12:27.987Z,14.60
2022-10-23T20:14:55.263Z,14.70
2022-10-23T20:17:22.410Z,14.60
2022-10-23T20:19:49.669Z,14.60
2022-10-23T20:22:16.457Z,14.60
2022-10-23T20:24:43.223Z,14.60
2022-10-23T20:27:10.505Z,14.60
2022-10-23T20:29:37.143Z,14.60
2022-10-23T20:32:03.876Z,14.60
2022-10-23T20:34:30.665Z,14.60
2022-10-23T20:36:57.443Z,14.60
2022-10-23T20:39:24.729Z,14.60
2022-10-23T20:41:51.811Z,14.60
2022-10-23T20:44:18.993Z,14.70
2022-10-23T20:46:45.960Z,14.70
2022-10-23T20:49:13.640Z,14.60
2022-10-23T20:51:40.410Z,14.60
2022-10-23T20:54:07.203Z,14.60
2022-10-23T20:56:37.986Z,14.70
2022-10-23T20:59:12.250Z,14.60
2022-10-23T21:01:44.034Z,14.60
2022-10-23T21:04:13.206Z,14.60
2022-10-23T21:06:51.977Z,14.60
2022-10-23T21:09:29.545Z,14.60
2022-10-23T21:11:56.209Z,14.60
2022-10-23T21:14:22.766Z,14.60
2022-10-23T21:16:49.376Z,14.60
2022-10-23T21:19:16.319Z,14.60
2022-10-23T21:21:43.845Z,14.60
2022-10-23T21:24:14.894Z,14.60
2022-10-23T21:26:41.938Z,14.50
2022-10-23T21:29:23.733Z,14.60
2022-10-23T21:31:54.443Z,14.60
2022-10-23T21:34:21.532Z,14.60
2022-10-23T21:37:11.420Z,14.60
2022-10-23T21:39:34.770Z,14.70
2022-10-23T21:42:01.385Z,14.60
2022-10-23T21:44:27.984Z,14.70
2022-10-23T21:46:54.559Z,14.70
2022-10-23T21:49:21.136Z,14.70
2022-10-23T21:51:47.773Z,14.70
2022-10-23T21:54:14.535Z,14.70
2022-10-23T21:56:47.375Z,14.80
2022-10-23T21:59:16.701Z,14.90
2022-10-23T22:01:45.281Z,14.90
2022-10-23T22:04:14.070Z,15.00
2022-10-23T22:06:42.265Z,15.10
2022-10-23T22:09:11.896Z,15.10
2022-10-23T22:11:38.743Z,15.10
2022-10-23T22:14:05.354Z,15.20
2022-10-23T22:16:32.175Z,15.20
2022-10-23T22:18:58.847Z,15.30
2022-10-23T22:21:28.062Z,15.30
2022-10-23T22:23:56.720Z,15.30
2022-10-23T22:26:51.126Z,15.30
2022-10-23T22:29:20.868Z,15.40
2022-10-23T22:31:49.793Z,15.40
2022-10-23T22:34:47.793Z,15.40
2022-10-23T22:37:11.277Z,15.50
2022-10-23T22:39:38.577Z,15.50
2022-10-23T22:42:05.240Z,15.50
2022-10-23T22:44:31.832Z,15.40
2022-10-23T22:46:58.460Z,15.40
2022-10-23T22:49:25.029Z,15.50
2022-10-23T22:51:51.716Z,15.50
2022-10-23T22:54:18.305Z,15.60
2022-10-23T22:56:44.944Z,15.70
2022-10-23T22:59:11.510Z,15.70
2022-10-23T23:01:44.650Z,15.70
2022-10-23T23:04:26.037Z,15.70
2022-10-23T23:06:59.032Z,15.90
2022-10-23T23:09:25.658Z,16.10
2022-10-23T23:11:52.737Z,16.10
2022-10-23T23:14:23.381Z,16.20
2022-10-23T23:16:52.508Z,16.20
2022-10-23T23:19:19.170Z,16.30
2022-10-23T23:21:45.760Z,16.30
2022-10-23T23:24:12.357Z,16.30
2022-10-23T23:26:39.066Z,16.20
2022-10-23T23:29:05.813Z,16.20
2022-10-23T23:31:32.418Z,16.20
2022-10-23T23:33:59.015Z,16.10
2022-10-23T23:36:26.953Z,16.10
2022-10-23T23:38:54.207Z,16.10
2022-10-23T23:41:22.099Z,16.10
2022-10-23T23:43:49.214Z,16.10
2022-10-23T23:46:17.217Z,15.90
2022-10-23T23:48:43.837Z,15.90
2022-10-23T23:51:10.405Z,15.80
2022-10-23T23:53:37.001Z,15.80
2022-10-23T23:56:03.699Z,15.70
2022-10-23T23:58:30.287Z,15.60
